createdAt,value
2022-11-01T00:00:44.556Z,94.40
2022-11-01T00:03:30.536Z,95.50
2022-11-01T00:06:16.570Z,95.50
2022-11-01T00:09:03.479Z,95.50
2022-11-01T00:11:49.880Z,95.40
2022-11-01T00:14:36.091Z,95.90
2022-11-01T00:17:22.140Z,96.00
2022-11-01T00:20:08.687Z,96.40
2022-11-01T00:22:54.682Z,96.80
2022-11-01T00:25:40.654Z,97.00
2022-11-01T00:28:28.190Z,97.10
2022-11-01T00:31:16.164Z,97.00
2022-11-01T00:34:05.587Z,97.20
2022-11-01T00:36:51.640Z,97.30
2022-11-01T00:39:37.631Z,97.40
2022-11-01T00:42:23.586Z,97.70
2022-11-01T00:45:09.972Z,97.70
2022-11-01T00:47:55.929Z,97.70
2022-11-01T00:50:41.847Z,97.60
2022-11-01T00:53:27.796Z,97.60
2022-11-01T00:56:13.760Z,97.50
2022-11-01T00:59:00.132Z,97.30
2022-11-01T01:01:47.484Z,97.10
2022-11-01T01:04:33.896Z,97.20
2022-11-01T01:07:19.990Z,97.50
2022-11-01T01:10:07.422Z,97.20
2022-11-01T01:12:53.511Z,97.20
2022-11-01T01:15:40.144Z,97.00
2022-11-01T01:18:27.360Z,96.40
2022-11-01T01:21:14.111Z,95.90
2022-11-01T01:24:00.660Z,95.80
2022-11-01T01:26:46.725Z,96.20
2022-11-01T01:29:32.675Z,96.60
2022-11-01T01:32:23.517Z,96.90
2022-11-01T01:35:10.392Z,96.80
2022-11-01T01:37:56.522Z,96.60
2022-11-01T01:40:42.963Z,96.50
2022-11-01T01:43:41.544Z,96.40
2022-11-01T01:46:27.333Z,96.60
2022-11-01T01:49:13.404Z,95.90
2022-11-01T01:51:59.333Z,96.00
2022-11-01T01:54:45.563Z,96.30
2022-11-01T01:57:32.341Z,96.50
2022-11-01T02:00:18.748Z,96.10
2022-11-01T02:03:06.585Z,96.00
2022-11-01T02:05:58.111Z,96.10
2022-11-01T02:08:48.426Z,96.00
2022-11-01T02:11:34.754Z,96.30
2022-11-01T02:14:23.345Z,97.10
2022-11-01T02:17:12.403Z,97.00
2022-11-01T02:20:36.113Z,97.20
2022-11-01T02:23:54.730Z,97.40
2022-11-01T02:26:43.812Z,97.30
2022-11-01T02:30:05.551Z,96.90
2022-11-01T02:33:15.643Z,96.80
2022-11-01T02:36:16.343Z,96.40
2022-11-01T02:39:19.751Z,96.40
2022-11-01T02:42:14.543Z,96.50
2022-11-01T02:45:27.571Z,96.50
2022-11-01T02:48:13.652Z,96.20
2022-11-01T02:51:00.370Z,95.70
2022-11-01T02:53:46.778Z,95.40
2022-11-01T02:56:33.063Z,95.50
2022-11-01T02:59:28.456Z,95.60
2022-11-01T03:02:21.439Z,95.70
2022-11-01T03:05:16.445Z,95.80
2022-11-01T03:08:09.538Z,96.10
2022-11-01T03:11:07.064Z,96.00
2022-11-01T03:13:57.517Z,95.90
2022-11-01T03:16:59.094Z,95.40
2022-11-01T03:19:49.327Z,95.40
2022-11-01T03:22:46.178Z,95.60
2022-11-01T03:25:44.481Z,95.50
2022-11-01T03:28:30.349Z,95.70
2022-11-01T03:31:43.511Z,95.70
2022-11-01T03:34:32.777Z,95.50
2022-11-01T03:37:20.465Z,94.80
2022-11-01T03:40:08.654Z,95.30
2022-11-01T03:42:59.780Z,95.30
2022-11-01T03:45:46.243Z,95.50
2022-11-01T03:48:32.209Z,95.70
2022-11-01T03:51:18.786Z,95.80
2022-11-01T03:54:10.928Z,95.00
2022-11-01T03:56:57.343Z,94.80
2022-11-01T03:59:43.419Z,94.60
2022-11-01T04:02:29.520Z,95.10
2022-11-01T04:05:16.441Z,95.80
2022-11-01T04:08:03.346Z,96.00
2022-11-01T04:10:49.266Z,95.80
2022-11-01T04:13:35.271Z,95.70
2022-11-01T04:16:39.734Z,95.50
2022-11-01T04:19:44.143Z,95.30
2022-11-01T04:22:30.055Z,95.60
2022-11-01T04:25:16.018Z,95.60
2022-11-01T04:28:05.495Z,94.80
2022-11-01T04:30:51.767Z,95.20
2022-11-01T04:33:38.205Z,95.10
2022-11-01T04:36:25.410Z,95.30
2022-11-01T04:39:11.202Z,95.20
2022-11-01T04:41:57.074Z,95.40
2022-11-01T04:44:43.083Z,94.80
2022-11-01T04:47:29.016Z,95.10
2022-11-01T04:50:15.186Z,95.60
2022-11-01T04:53:01.941Z,96.00
2022-11-01T04:55:47.980Z,95.40
2022-11-01T04:58:39.990Z,93.90
2022-11-01T05:01:29.287Z,94.60
2022-11-01T05:04:15.645Z,95.70
2022-11-01T05:07:01.920Z,96.50
2022-11-01T05:09:48.275Z,96.50
2022-11-01T05:12:35.440Z,96.60
2022-11-01T05:15:21.733Z,96.40
2022-11-01T05:18:07.849Z,96.40
2022-11-01T05:20:54.237Z,96.30
2022-11-01T05:23:40.258Z,95.80
2022-11-01T05:26:27.796Z,94.50
2022-11-01T05:29:24.498Z,94.90
2022-11-01T05:32:18.581Z,95.10
2022-11-01T05:35:06.234Z,95.80
2022-11-01T05:37:52.840Z,96.10
2022-11-01T05:40:39.180Z,96.70
2022-11-01T05:43:25.208Z,96.10
2022-11-01T05:46:11.275Z,96.20
2022-11-01T05:48:57.150Z,96.10
2022-11-01T05:51:43.836Z,96.30
2022-11-01T05:54:30.006Z,96.60
2022-11-01T05:57:16.202Z,96.90
2022-11-01T06:00:02.271Z,96.70
2022-11-01T06:03:02.073Z,96.50
2022-11-01T06:05:48.858Z,96.10
2022-11-01T06:08:35.139Z,96.20
2022-11-01T06:11:20.974Z,96.00
2022-11-01T06:14:07.045Z,96.10
2022-11-01T06:16:53.314Z,96.00
2022-11-01T06:19:39.609Z,95.90
2022-11-01T06:22:25.750Z,95.70
2022-11-01T06:25:12.392Z,95.70
2022-11-01T06:27:58.297Z,95.10
2022-11-01T06:30:44.485Z,95.20
2022-11-01T06:33:31.080Z,95.70
2022-11-01T06:36:17.162Z,95.80
2022-11-01T06:39:03.340Z,95.60
2022-11-01T06:41:51.177Z,95.50
2022-11-01T06:44:37.469Z,95.50
2022-11-01T06:47:23.706Z,95.80
2022-11-01T06:50:10.211Z,95.90
2022-11-01T06:52:58.463Z,96.10
2022-11-01T06:55:44.480Z,96.10
2022-11-01T06:58:30.510Z,95.90
2022-11-01T07:01:22.277Z,95.90
2022-11-01T07:04:08.713Z,96.20
2022-11-01T07:06:55.169Z,96.30
2022-11-01T07:09:41.053Z,96.40
2022-11-01T07:12:27.742Z,96.50
2022-11-01T07:15:14.390Z,96.60
2022-11-01T07:18:02.850Z,96.30
2022-11-01T07:20:48.954Z,96.10
2022-11-01T07:23:35.098Z,95.80
2022-11-01T07:26:21.490Z,95.50
2022-11-01T07:29:07.476Z,95.60
2022-11-01T07:31:53.453Z,95.80
2022-11-01T07:34:39.470Z,95.80
2022-11-01T07:37:29.908Z,95.40
2022-11-01T07:40:16.524Z,95.20
2022-11-01T07:43:02.901Z,95.40
2022-11-01T07:45:49.118Z,95.60
2022-11-01T07:48:36.930Z,95.50
2022-11-01T07:51:23.635Z,95.90
2022-11-01T07:54:11.480Z,95.20
2022-11-01T07:56:58.119Z,94.80
2022-11-01T07:59:44.241Z,94.30
2022-11-01T08:02:30.394Z,94.20
2022-11-01T08:05:17.091Z,93.10
2022-11-01T08:08:03.876Z,92.80
2022-11-01T08:10:50.206Z,92.00
2022-11-01T08:13:36.309Z,92.00
2022-11-01T08:16:22.528Z,92.10
2022-11-01T08:19:08.879Z,91.50
2022-11-01T08:21:58.707Z,91.90
2022-11-01T08:24:45.294Z,91.30
2022-11-01T08:27:32.920Z,91.50
2022-11-01T08:30:21.029Z,91.60
2022-11-01T08:33:07.982Z,91.30
2022-11-01T08:35:53.954Z,91.60
2022-11-01T08:38:39.987Z,91.60
2022-11-01T08:41:28.243Z,91.70
2022-11-01T08:44:14.810Z,91.40
2022-11-01T08:47:01.772Z,90.70
2022-11-01T08:49:48.321Z,90.60
2022-11-01T08:52:35.131Z,90.30
2022-11-01T08:55:22.104Z,90.00
2022-11-01T08:58:08.761Z,90.00
2022-11-01T09:00:54.914Z,90.20
2022-11-01T09:03:41.252Z,90.10
2022-11-01T09:06:33.697Z,88.50
2022-11-01T09:09:22.696Z,87.40
2022-11-01T09:12:14.099Z,87.80
2022-11-01T09:15:00.796Z,88.30
2022-11-01T09:17:46.903Z,88.70
2022-11-01T09:20:33.138Z,89.30
2022-11-01T09:23:19.626Z,90.30
2022-11-01T09:26:08.369Z,90.10
2022-11-01T09:28:58.375Z,89.90
2022-11-01T09:31:44.508Z,90.20
2022-11-01T09:34:31.047Z,90.10
2022-11-01T09:37:17.531Z,90.40
2022-11-01T09:40:04.590Z,90.70
2022-11-01T09:42:52.512Z,90.80
2022-11-01T09:45:39.280Z,90.50
2022-11-01T09:48:30.579Z,90.30
2022-11-01T09:51:24.275Z,90.30
2022-11-01T09:54:11.020Z,90.40
2022-11-01T09:57:26.717Z,90.20
2022-11-01T10:00:20.589Z,90.40
2022-11-01T10:03:07.651Z,90.10
2022-11-01T10:06:12.974Z,90.10
2022-11-01T10:09:17.077Z,90.00
2022-11-01T10:12:19.448Z,90.50
2022-11-01T10:15:24.862Z,89.80
2022-11-01T10:18:27.865Z,90.20
2022-11-01T10:21:16.617Z,90.30
2022-11-01T10:24:07.979Z,89.90
2022-11-01T10:27:12.840Z,90.30
2022-11-01T10:30:04.084Z,90.10
2022-11-01T10:33:13.805Z,89.10
2022-11-01T10:36:04.317Z,89.60
2022-11-01T10:39:48.218Z,89.30
2022-11-01T10:42:10.226Z,89.20
2022-11-01T10:45:01.514Z,88.60
2022-11-01T10:47:49.451Z,89.10
2022-11-01T10:50:35.742Z,89.50
2022-11-01T10:53:22.681Z,88.60
2022-11-01T10:56:12.450Z,87.90
2022-11-01T10:59:13.463Z,86.50
2022-11-01T11:02:02.016Z,86.70
2022-11-01T11:04:50.042Z,86.50
2022-11-01T11:07:36.127Z,85.60
2022-11-01T11:10:28.993Z,84.20
2022-11-01T11:13:19.713Z,85.90
2022-11-01T11:16:13.931Z,84.20
2022-11-01T11:19:21.104Z,82.70
2022-11-01T11:22:09.083Z,82.50
2022-11-01T11:24:58.946Z,82.90
2022-11-01T11:27:47.701Z,81.10
2022-11-01T11:30:35.401Z,81.10
2022-11-01T11:33:22.528Z,78.20
2022-11-01T11:36:09.037Z,79.40
2022-11-01T11:38:55.699Z,80.40
2022-11-01T11:41:44.375Z,81.20
2022-11-01T11:44:44.620Z,79.50
2022-11-01T11:47:36.434Z,79.10
2022-11-01T11:50:32.762Z,78.70
2022-11-01T11:53:22.924Z,78.50
2022-11-01T11:56:11.915Z,80.60
2022-11-01T11:59:08.366Z,79.50
2022-11-01T12:02:26.619Z,77.20
2022-11-01T12:05:18.590Z,77.00
2022-11-01T12:08:05.863Z,77.30
2022-11-01T12:10:58.125Z,77.40
2022-11-01T12:14:06.108Z,78.50
2022-11-01T12:16:52.572Z,79.50
2022-11-01T12:19:38.948Z,80.00
2022-11-01T12:22:24.935Z,80.80
2022-11-01T12:25:14.990Z,80.80
2022-11-01T12:28:06.394Z,80.70
2022-11-01T12:30:58.144Z,81.30
2022-11-01T12:34:03.727Z,81.60
2022-11-01T12:36:55.624Z,80.30
2022-11-01T12:40:07.949Z,81.20
2022-11-01T12:43:02.647Z,81.80
2022-11-01T12:46:14.232Z,82.90
2022-11-01T12:49:16.287Z,81.70
2022-11-01T12:52:26.717Z,82.30
2022-11-01T12:55:15.334Z,82.60
2022-11-01T12:58:13.399Z,83.30
2022-11-01T13:01:13.700Z,84.10
2022-11-01T13:04:31.804Z,83.60
2022-11-01T13:07:46.720Z,83.90
2022-11-01T13:10:38.238Z,83.40
2022-11-01T13:14:23.065Z,83.90
2022-11-01T13:17:39.841Z,84.40
2022-11-01T13:20:31.970Z,84.10
2022-11-01T13:23:49.312Z,84.00
2022-11-01T13:26:50.349Z,85.00
2022-11-01T13:29:51.915Z,84.70
2022-11-01T13:32:48.762Z,85.30
2022-11-01T13:35:47.224Z,86.20
2022-11-01T13:38:51.746Z,85.50
2022-11-01T13:41:47.732Z,85.30
2022-11-01T13:44:38.459Z,85.90
2022-11-01T13:47:41.671Z,85.70
2022-11-01T13:50:58.384Z,85.80
2022-11-01T13:53:46.779Z,85.50
2022-11-01T13:56:55.076Z,85.90
2022-11-01T13:59:44.611Z,85.40
2022-11-01T14:02:31.021Z,85.70
2022-11-01T14:05:17.163Z,85.30
2022-11-01T14:08:03.714Z,85.30
2022-11-01T14:10:50.738Z,85.80
2022-11-01T14:13:45.745Z,86.20
2022-11-01T14:16:31.835Z,85.90
2022-11-01T14:19:21.560Z,86.70
2022-11-01T14:22:27.829Z,86.60
2022-11-01T14:25:13.969Z,86.00
2022-11-01T14:28:21.016Z,86.00
2022-11-01T14:31:07.679Z,86.30
2022-11-01T14:33:59.019Z,86.40
2022-11-01T14:36:46.833Z,86.40
2022-11-01T14:39:46.588Z,86.80
2022-11-01T14:42:41.873Z,87.00
2022-11-01T14:45:39.772Z,87.20
2022-11-01T14:48:47.326Z,87.50
2022-11-01T14:51:41.734Z,87.70
2022-11-01T14:54:34.871Z,87.80
2022-11-01T14:57:28.037Z,87.70
2022-11-01T15:00:41.221Z,88.10
2022-11-01T15:03:27.588Z,88.30
2022-11-01T15:06:24.648Z,88.50
2022-11-01T15:09:18.853Z,88.50
2022-11-01T15:12:10.818Z,88.50
2022-11-01T15:14:58.866Z,88.50
2022-11-01T15:17:53.107Z,88.80
2022-11-01T15:20:42.519Z,89.50
2022-11-01T15:23:49.181Z,89.00
2022-11-01T15:26:36.310Z,89.20
2022-11-01T15:29:24.867Z,89.30
2022-11-01T15:32:32.569Z,89.30
2022-11-01T15:35:26.772Z,89.20
2022-11-01T15:38:20.781Z,89.70
2022-11-01T15:41:30.783Z,90.10
2022-11-01T15:44:26.226Z,89.00
2022-11-01T15:47:26.000Z,89.00
2022-11-01T15:50:13.351Z,89.30
2022-11-01T15:53:04.081Z,89.40
2022-11-01T15:56:07.302Z,89.70
2022-11-01T16:01:47.254Z,90.00
2022-11-01T16:04:41.051Z,90.10
2022-11-01T16:07:30.628Z,90.10
2022-11-01T16:10:23.744Z,90.10
2022-11-01T16:13:17.563Z,90.10
2022-11-01T16:16:10.556Z,90.40
2022-11-01T16:18:56.753Z,90.40
2022-11-01T16:21:48.166Z,90.10
2022-11-01T16:24:35.092Z,90.10
2022-11-01T16:27:28.234Z,90.40
2022-11-01T16:30:33.336Z,90.10
2022-11-01T16:33:28.752Z,90.10
2022-11-01T16:36:18.041Z,90.00
2022-11-01T16:39:31.116Z,90.20
2022-11-01T16:42:18.610Z,90.10
2022-11-01T16:45:16.986Z,90.40
2022-11-01T16:48:03.858Z,90.50
2022-11-01T16:50:52.254Z,90.10
2022-11-01T16:53:38.566Z,90.40
2022-11-01T16:56:36.614Z,90.70
2022-11-01T16:59:38.082Z,90.70
2022-11-01T17:02:29.781Z,90.40
2022-11-01T17:05:21.022Z,90.80
2022-11-01T17:08:09.632Z,90.70
2022-11-01T17:10:55.660Z,90.40
2022-11-01T17:13:42.176Z,90.30
2022-11-01T17:16:28.513Z,90.60
2022-11-01T17:19:31.181Z,90.70
2022-11-01T17:22:26.173Z,90.70
2022-11-01T17:25:16.749Z,90.50
2022-11-01T17:28:03.320Z,90.50
2022-11-01T17:30:50.437Z,91.00
2022-11-01T17:33:36.801Z,91.00
2022-11-01T17:36:23.147Z,91.10
2022-11-01T17:39:10.348Z,91.00
2022-11-01T17:41:56.549Z,91.20
2022-11-01T17:44:42.762Z,91.20
2022-11-01T17:47:29.029Z,91.50
2022-11-01T17:50:16.572Z,91.70
2022-11-01T17:53:03.503Z,91.90
2022-11-01T17:55:57.202Z,91.70
2022-11-01T17:58:49.418Z,91.70
2022-11-01T18:01:38.785Z,91.90
2022-11-01T18:04:25.279Z,92.00
2022-11-01T18:07:12.775Z,92.00
2022-11-01T18:09:59.499Z,92.00
2022-11-01T18:13:12.115Z,92.10
2022-11-01T18:16:26.742Z,92.30
2022-11-01T18:19:34.986Z,92.10
2022-11-01T18:22:57.419Z,92.00
2022-11-01T18:25:47.284Z,92.20
2022-11-01T18:28:35.110Z,92.60
2022-11-01T18:31:39.470Z,92.70
2022-11-01T18:34:47.145Z,92.90
2022-11-01T18:37:36.676Z,92.90
2022-11-01T18:40:27.738Z,93.40
2022-11-01T18:43:13.746Z,93.60
2022-11-01T18:46:24.006Z,93.90
2022-11-01T18:49:12.835Z,93.80
2022-11-01T18:51:59.049Z,93.90
2022-11-01T18:54:56.534Z,93.70
2022-11-01T18:57:42.918Z,93.60
2022-11-01T19:00:28.847Z,93.90
2022-11-01T19:03:16.980Z,94.00
2022-11-01T19:06:21.006Z,94.10
2022-11-01T19:09:24.632Z,94.00
2022-11-01T19:12:29.686Z,94.00
2022-11-01T19:15:29.545Z,94.20
2022-11-01T19:18:22.624Z,94.00
2022-11-01T19:21:17.333Z,94.10
2022-11-01T19:24:16.767Z,94.30
2022-11-01T19:27:13.939Z,94.30
2022-11-01T19:30:00.094Z,94.50
2022-11-01T19:32:46.560Z,94.40
2022-11-01T19:35:32.857Z,94.40
2022-11-01T19:38:19.833Z,94.00
2022-11-01T19:41:05.936Z,93.90
2022-11-01T19:43:54.046Z,93.70
2022-11-01T19:46:40.063Z,93.30
2022-11-01T19:49:32.012Z,93.50
2022-11-01T19:52:36.252Z,93.90
2022-11-01T19:55:37.335Z,93.60
2022-11-01T19:58:30.907Z,93.80
2022-11-01T20:01:17.130Z,94.00
2022-11-01T20:04:27.691Z,94.20
2022-11-01T20:07:19.999Z,94.50
2022-11-01T20:10:08.638Z,94.60
2022-11-01T20:12:54.895Z,95.00
2022-11-01T20:15:41.341Z,94.70
2022-11-01T20:18:27.439Z,94.30
2022-11-01T20:21:13.466Z,94.70
2022-11-01T20:23:59.995Z,95.20
2022-11-01T20:26:46.205Z,95.30
2022-11-01T20:29:32.615Z,96.00
2022-11-01T20:32:18.859Z,96.30
2022-11-01T20:35:05.768Z,96.30
2022-11-01T20:37:52.426Z,96.40
2022-11-01T20:40:38.391Z,96.50
2022-11-01T20:43:24.412Z,96.40
2022-11-01T20:46:10.775Z,96.20
2022-11-01T20:48:57.001Z,95.90
2022-11-01T20:51:43.203Z,95.40
2022-11-01T20:54:30.332Z,95.00
2022-11-01T20:57:27.651Z,95.10
2022-11-01T21:00:17.988Z,95.10
2022-11-01T21:03:15.430Z,95.30
2022-11-01T21:06:01.653Z,95.40
2022-11-01T21:08:48.983Z,95.30
2022-11-01T21:11:44.236Z,95.20
2022-11-01T21:14:37.388Z,95.00
2022-11-01T21:17:23.608Z,95.20
2022-11-01T21:20:22.983Z,95.40
2022-11-01T21:23:21.589Z,95.80
2022-11-01T21:26:10.299Z,95.80
2022-11-01T21:29:15.742Z,95.60
2022-11-01T21:32:15.201Z,95.70
2022-11-01T21:35:30.011Z,95.80
2022-11-01T21:38:36.681Z,95.90
2022-11-01T21:41:34.543Z,95.90
2022-11-01T21:44:39.637Z,95.90
2022-11-01T21:47:31.221Z,96.00
2022-11-01T21:50:17.173Z,96.00
2022-11-01T21:53:03.278Z,96.10
2022-11-01T21:55:49.506Z,96.40
2022-11-01T21:58:35.506Z,96.20
2022-11-01T22:01:21.565Z,96.30
2022-11-01T22:04:07.320Z,96.60
2022-11-01T22:06:53.398Z,96.70
2022-11-01T22:09:39.499Z,96.40
2022-11-01T22:12:25.776Z,95.80
2022-11-01T22:15:11.828Z,95.60
2022-11-01T22:17:57.713Z,96.10
2022-11-01T22:20:43.718Z,96.60
2022-11-01T22:23:29.686Z,96.80
2022-11-01T22:26:16.241Z,96.70
2022-11-01T22:29:02.241Z,96.90
2022-11-01T22:31:48.247Z,96.90
2022-11-01T22:34:34.158Z,96.20
2022-11-01T22:37:20.221Z,95.90
2022-11-01T22:40:13.218Z,96.30
2022-11-01T22:42:59.757Z,96.20
2022-11-01T22:45:45.732Z,96.00
2022-11-01T22:48:32.277Z,95.80
2022-11-01T22:51:50.444Z,95.50
2022-11-01T22:54:52.051Z,95.40
2022-11-01T22:57:49.477Z,95.00
2022-11-01T23:00:39.199Z,94.60
2022-11-01T23:03:38.308Z,94.20
2022-11-01T23:06:30.964Z,94.40
2022-11-01T23:09:19.840Z,94.60
2022-11-01T23:12:40.774Z,94.70
2022-11-01T23:15:29.202Z,94.00
2022-11-01T23:18:23.880Z,94.80
2022-11-01T23:21:10.351Z,95.70
2022-11-01T23:23:56.715Z,95.80
2022-11-01T23:26:42.858Z,95.80
2022-11-01T23:29:28.985Z,95.40
2022-11-01T23:32:15.151Z,95.50
2022-11-01T23:35:14.795Z,95.10
2022-11-01T23:38:01.048Z,94.40
2022-11-01T23:40:47.233Z,95.20
2022-11-01T23:43:38.732Z,95.80
2022-11-01T23:46:26.511Z,96.30
2022-11-01T23:49:18.387Z,96.70
2022-11-01T23:52:24.501Z,96.60
2022-11-01T23:55:40.768Z,96.80
